sensor_id;sensor_type;location;lat;lon;timestamp;P1;durP1;ratioP1;P2;durP2;ratioP2
70067;SDS011;57425;51.616;6.680;2023-06-14T00:01:24;3.08;;;1.90;;
70067;SDS011;57425;51.616;6.680;2023-06-14T00:03:50;4.18;;;1.95;;
70067;SDS011;57425;51.616;6.680;2023-06-14T00:06:15;3.78;;;2.47;;
70067;SDS011;57425;51.616;6.680;2023-06-14T00:08:42;9.23;;;2.30;;
70067;SDS011;57425;51.616;6.680;2023-06-14T00:11:07;3.63;;;2.00;;
70067;SDS011;57425;51.616;6.680;2023-06-14T00:13:33;3.33;;;2.17;;
70067;SDS011;57425;51.616;6.680;2023-06-14T00:15:59;2.60;;;1.77;;
70067;SDS011;57425;51.616;6.680;2023-06-14T00:18:24;4.50;;;2.42;;
70067;SDS011;57425;51.616;6.680;2023-06-14T00:20:51;5.63;;;1.88;;
70067;SDS011;57425;51.616;6.680;2023-06-14T00:23:17;4.22;;;2.28;;
70067;SDS011;57425;51.616;6.680;2023-06-14T00:25:43;2.70;;;2.00;;
70067;SDS011;57425;51.616;6.680;2023-06-14T00:28:08;3.17;;;2.08;;
70067;SDS011;57425;51.616;6.680;2023-06-14T00:30:34;3.88;;;1.60;;
70067;SDS011;57425;51.616;6.680;2023-06-14T00:32:59;4.03;;;2.05;;
70067;SDS011;57425;51.616;6.680;2023-06-14T00:35:25;3.95;;;2.28;;
70067;SDS011;57425;51.616;6.680;2023-06-14T00:37:51;2.70;;;1.70;;
70067;SDS011;57425;51.616;6.680;2023-06-14T00:40:16;3.17;;;1.85;;
70067;SDS011;57425;51.616;6.680;2023-06-14T00:42:42;3.00;;;1.90;;
70067;SDS011;57425;51.616;6.680;2023-06-14T00:45:08;2.60;;;1.77;;
70067;SDS011;57425;51.616;6.680;2023-06-14T00:47:35;3.55;;;1.73;;
70067;SDS011;57425;51.616;6.680;2023-06-14T00:50:02;7.20;;;1.80;;
70067;SDS011;57425;51.616;6.680;2023-06-14T00:52:32;3.80;;;1.98;;
70067;SDS011;57425;51.616;6.680;2023-06-14T00:54:58;3.15;;;1.80;;
70067;SDS011;57425;51.616;6.680;2023-06-14T00:57:23;2.85;;;1.70;;
70067;SDS011;57425;51.616;6.680;2023-06-14T00:59:49;4.05;;;1.95;;
70067;SDS011;57425;51.616;6.680;2023-06-14T01:02:17;3.10;;;1.98;;
70067;SDS011;57425;51.616;6.680;2023-06-14T01:04:46;4.90;;;1.90;;
70067;SDS011;57425;51.616;6.680;2023-06-14T01:07:32;4.05;;;1.95;;
70067;SDS011;57425;51.616;6.680;2023-06-14T01:15:17;1.67;;;1.35;;
70067;SDS011;57425;51.616;6.680;2023-06-14T01:17:45;6.75;;;1.42;;
70067;SDS011;57425;51.616;6.680;2023-06-14T01:20:16;3.55;;;1.90;;
70067;SDS011;57425;51.616;6.680;2023-06-14T01:22:51;2.90;;;1.67;;
70067;SDS011;57425;51.616;6.680;2023-06-14T01:25:20;3.72;;;2.10;;
70067;SDS011;57425;51.616;6.680;2023-06-14T01:28:08;3.80;;;1.70;;
70067;SDS011;57425;51.616;6.680;2023-06-14T01:30:36;2.67;;;1.75;;
70067;SDS011;57425;51.616;6.680;2023-06-14T01:33:03;2.35;;;1.55;;
70067;SDS011;57425;51.616;6.680;2023-06-14T01:35:30;3.00;;;1.67;;
70067;SDS011;57425;51.616;6.680;2023-06-14T01:37:56;2.40;;;1.55;;
70067;SDS011;57425;51.616;6.680;2023-06-14T01:40:23;2.08;;;1.70;;
70067;SDS011;57425;51.616;6.680;2023-06-14T01:42:50;2.33;;;1.65;;
70067;SDS011;57425;51.616;6.680;2023-06-14T01:45:16;2.72;;;1.70;;
70067;SDS011;57425;51.616;6.680;2023-06-14T01:47:43;2.63;;;1.40;;
70067;SDS011;57425;51.616;6.680;2023-06-14T01:50:10;2.95;;;1.40;;
70067;SDS011;57425;51.616;6.680;2023-06-14T01:52:38;5.35;;;2.05;;
70067;SDS011;57425;51.616;6.680;2023-06-14T01:55:05;2.55;;;1.92;;
70067;SDS011;57425;51.616;6.680;2023-06-14T01:57:31;3.80;;;1.35;;
70067;SDS011;57425;51.616;6.680;2023-06-14T01:59:56;1.90;;;1.55;;
70067;SDS011;57425;51.616;6.680;2023-06-14T02:02:22;6.13;;;1.85;;
70067;SDS011;57425;51.616;6.680;2023-06-14T02:04:48;3.47;;;1.80;;
70067;SDS011;57425;51.616;6.680;2023-06-14T02:07:13;2.38;;;1.33;;
70067;SDS011;57425;51.616;6.680;2023-06-14T02:09:40;2.65;;;1.90;;
70067;SDS011;57425;51.616;6.680;2023-06-14T02:12:06;2.78;;;1.30;;
70067;SDS011;57425;51.616;6.680;2023-06-14T02:14:32;2.35;;;1.50;;
70067;SDS011;57425;51.616;6.680;2023-06-14T02:16:58;6.68;;;1.63;;
70067;SDS011;57425;51.616;6.680;2023-06-14T02:19:26;1.80;;;1.27;;
70067;SDS011;57425;51.616;6.680;2023-06-14T02:21:51;4.13;;;1.70;;
70067;SDS011;57425;51.616;6.680;2023-06-14T02:24:17;2.38;;;1.40;;
70067;SDS011;57425;51.616;6.680;2023-06-14T02:26:43;4.88;;;1.73;;
70067;SDS011;57425;51.616;6.680;2023-06-14T02:29:09;1.83;;;1.58;;
70067;SDS011;57425;51.616;6.680;2023-06-14T02:31:37;3.65;;;1.25;;
70067;SDS011;57425;51.616;6.680;2023-06-14T02:34:03;1.88;;;1.23;;
70067;SDS011;57425;51.616;6.680;2023-06-14T02:36:28;4.32;;;2.20;;
70067;SDS011;57425;51.616;6.680;2023-06-14T02:38:55;3.35;;;1.83;;
70067;SDS011;57425;51.616;6.680;2023-06-14T02:41:22;1.75;;;1.17;;
70067;SDS011;57425;51.616;6.680;2023-06-14T02:43:49;2.88;;;1.48;;
70067;SDS011;57425;51.616;6.680;2023-06-14T02:46:15;4.53;;;1.95;;
70067;SDS011;57425;51.616;6.680;2023-06-14T02:48:40;3.17;;;1.60;;
70067;SDS011;57425;51.616;6.680;2023-06-14T02:51:06;2.80;;;1.83;;
70067;SDS011;57425;51.616;6.680;2023-06-14T02:53:33;3.00;;;1.42;;
70067;SDS011;57425;51.616;6.680;2023-06-14T02:55:59;3.65;;;1.40;;
70067;SDS011;57425;51.616;6.680;2023-06-14T02:58:25;2.33;;;1.60;;
70067;SDS011;57425;51.616;6.680;2023-06-14T03:00:51;14.50;;;1.67;;
70067;SDS011;57425;51.616;6.680;2023-06-14T03:03:19;2.72;;;1.40;;
70067;SDS011;57425;51.616;6.680;2023-06-14T03:05:47;4.28;;;1.77;;
70067;SDS011;57425;51.616;6.680;2023-06-14T03:08:15;2.83;;;1.65;;
70067;SDS011;57425;51.616;6.680;2023-06-14T03:10:44;3.45;;;1.55;;
70067;SDS011;57425;51.616;6.680;2023-06-14T03:13:11;5.05;;;1.48;;
70067;SDS011;57425;51.616;6.680;2023-06-14T03:15:37;3.40;;;1.40;;
70067;SDS011;57425;51.616;6.680;2023-06-14T03:18:03;2.03;;;1.40;;
70067;SDS011;57425;51.616;6.680;2023-06-14T03:20:29;3.15;;;1.63;;
70067;SDS011;57425;51.616;6.680;2023-06-14T03:22:58;5.22;;;1.50;;
70067;SDS011;57425;51.616;6.680;2023-06-14T03:25:25;1.95;;;1.23;;
70067;SDS011;57425;51.616;6.680;2023-06-14T03:27:54;2.42;;;1.58;;
70067;SDS011;57425;51.616;6.680;2023-06-14T03:30:20;2.13;;;1.40;;
70067;SDS011;57425;51.616;6.680;2023-06-14T03:32:46;2.10;;;1.52;;
70067;SDS011;57425;51.616;6.680;2023-06-14T03:35:11;3.03;;;1.35;;
70067;SDS011;57425;51.616;6.680;2023-06-14T03:37:42;3.13;;;1.67;;
70067;SDS011;57425;51.616;6.680;2023-06-14T03:40:08;2.95;;;1.58;;
70067;SDS011;57425;51.616;6.680;2023-06-14T03:42:34;2.08;;;1.42;;
70067;SDS011;57425;51.616;6.680;2023-06-14T03:45:00;1.98;;;1.75;;
70067;SDS011;57425;51.616;6.680;2023-06-14T03:47:25;1.95;;;1.65;;
70067;SDS011;57425;51.616;6.680;2023-06-14T03:49:52;2.78;;;1.13;;
70067;SDS011;57425;51.616;6.680;2023-06-14T03:52:17;2.28;;;1.65;;
70067;SDS011;57425;51.616;6.680;2023-06-14T03:54:43;4.90;;;2.45;;
70067;SDS011;57425;51.616;6.680;2023-06-14T03:57:09;2.85;;;1.55;;
70067;SDS011;57425;51.616;6.680;2023-06-14T03:59:35;7.55;;;1.65;;
70067;SDS011;57425;51.616;6.680;2023-06-14T04:02:01;4.00;;;1.75;;
70067;SDS011;57425;51.616;6.680;2023-06-14T04:04:27;6.85;;;1.52;;
70067;SDS011;57425;51.616;6.680;2023-06-14T04:06:54;2.30;;;1.35;;
70067;SDS011;57425;51.616;6.680;2023-06-14T04:09:21;5.13;;;1.40;;
70067;SDS011;57425;51.616;6.680;2023-06-14T04:11:49;1.75;;;1.20;;
70067;SDS011;57425;51.616;6.680;2023-06-14T04:14:16;4.00;;;1.30;;
70067;SDS011;57425;51.616;6.680;2023-06-14T04:16:41;2.95;;;1.40;;
70067;SDS011;57425;51.616;6.680;2023-06-14T04:19:07;1.70;;;1.17;;
70067;SDS011;57425;51.616;6.680;2023-06-14T04:21:32;3.15;;;1.45;;
70067;SDS011;57425;51.616;6.680;2023-06-14T04:23:59;4.97;;;1.33;;
70067;SDS011;57425;51.616;6.680;2023-06-14T04:26:27;3.47;;;1.20;;
70067;SDS011;57425;51.616;6.680;2023-06-14T04:28:55;5.97;;;1.88;;
70067;SDS011;57425;51.616;6.680;2023-06-14T04:31:22;1.67;;;1.13;;
70067;SDS011;57425;51.616;6.680;2023-06-14T04:33:50;3.03;;;1.25;;
70067;SDS011;57425;51.616;6.680;2023-06-14T04:36:18;1.88;;;1.10;;
70067;SDS011;57425;51.616;6.680;2023-06-14T04:38:43;2.42;;;1.65;;
70067;SDS011;57425;51.616;6.680;2023-06-14T04:41:11;3.25;;;1.38;;
70067;SDS011;57425;51.616;6.680;2023-06-14T04:43:37;3.40;;;1.55;;
70067;SDS011;57425;51.616;6.680;2023-06-14T04:46:05;2.05;;;1.38;;
70067;SDS011;57425;51.616;6.680;2023-06-14T04:48:35;3.35;;;0.88;;
70067;SDS011;57425;51.616;6.680;2023-06-14T04:51:02;4.78;;;1.42;;
70067;SDS011;57425;51.616;6.680;2023-06-14T04:53:28;1.10;;;1.00;;
70067;SDS011;57425;51.616;6.680;2023-06-14T04:55:54;1.20;;;1.00;;
70067;SDS011;57425;51.616;6.680;2023-06-14T04:58:20;3.25;;;1.30;;
70067;SDS011;57425;51.616;6.680;2023-06-14T05:00:45;1.90;;;1.13;;
70067;SDS011;57425;51.616;6.680;2023-06-14T05:03:11;1.55;;;1.10;;
70067;SDS011;57425;51.616;6.680;2023-06-14T05:05:38;2.65;;;1.23;;
70067;SDS011;57425;51.616;6.680;2023-06-14T05:08:05;5.65;;;1.25;;
70067;SDS011;57425;51.616;6.680;2023-06-14T05:10:30;3.75;;;1.52;;
70067;SDS011;57425;51.616;6.680;2023-06-14T05:12:56;5.70;;;1.67;;
70067;SDS011;57425;51.616;6.680;2023-06-14T05:15:22;2.55;;;1.30;;
70067;SDS011;57425;51.616;6.680;2023-06-14T05:17:50;3.17;;;1.10;;
70067;SDS011;57425;51.616;6.680;2023-06-14T05:20:20;4.32;;;1.00;;
70067;SDS011;57425;51.616;6.680;2023-06-14T05:22:52;2.08;;;1.15;;
70067;SDS011;57425;51.616;6.680;2023-06-14T05:25:21;2.13;;;1.23;;
70067;SDS011;57425;51.616;6.680;2023-06-14T05:27:48;1.65;;;1.17;;
70067;SDS011;57425;51.616;6.680;2023-06-14T05:30:14;2.65;;;1.33;;
70067;SDS011;57425;51.616;6.680;2023-06-14T05:32:40;3.30;;;1.80;;
70067;SDS011;57425;51.616;6.680;2023-06-14T05:35:07;3.05;;;1.55;;
70067;SDS011;57425;51.616;6.680;2023-06-14T05:37:33;3.17;;;1.80;;
70067;SDS011;57425;51.616;6.680;2023-06-14T05:39:58;1.67;;;1.23;;
70067;SDS011;57425;51.616;6.680;2023-06-14T05:42:24;1.52;;;1.00;;
70067;SDS011;57425;51.616;6.680;2023-06-14T05:44:50;2.45;;;1.33;;
70067;SDS011;57425;51.616;6.680;2023-06-14T05:47:15;1.30;;;1.20;;
70067;SDS011;57425;51.616;6.680;2023-06-14T05:49:41;2.30;;;1.38;;
70067;SDS011;57425;51.616;6.680;2023-06-14T05:52:07;3.30;;;1.60;;
70067;SDS011;57425;51.616;6.680;2023-06-14T05:54:33;2.58;;;1.27;;
70067;SDS011;57425;51.616;6.680;2023-06-14T05:56:58;2.08;;;1.48;;
70067;SDS011;57425;51.616;6.680;2023-06-14T05:59:26;8.30;;;1.48;;
70067;SDS011;57425;51.616;6.680;2023-06-14T06:01:52;1.40;;;1.00;;
70067;SDS011;57425;51.616;6.680;2023-06-14T06:04:18;3.20;;;1.70;;
70067;SDS011;57425;51.616;6.680;2023-06-14T06:06:44;3.45;;;2.03;;
70067;SDS011;57425;51.616;6.680;2023-06-14T06:09:10;6.30;;;1.15;;
70067;SDS011;57425;51.616;6.680;2023-06-14T06:11:36;2.22;;;1.33;;
70067;SDS011;57425;51.616;6.680;2023-06-14T06:14:01;1.83;;;1.20;;
70067;SDS011;57425;51.616;6.680;2023-06-14T06:16:27;5.45;;;1.00;;
70067;SDS011;57425;51.616;6.680;2023-06-14T06:18:52;2.35;;;1.27;;
70067;SDS011;57425;51.616;6.680;2023-06-14T06:21:18;3.45;;;1.05;;
70067;SDS011;57425;51.616;6.680;2023-06-14T06:23:44;3.20;;;1.70;;
70067;SDS011;57425;51.616;6.680;2023-06-14T06:26:09;1.58;;;1.13;;
70067;SDS011;57425;51.616;6.680;2023-06-14T06:28:35;3.13;;;0.98;;
70067;SDS011;57425;51.616;6.680;2023-06-14T06:31:00;1.23;;;1.10;;
70067;SDS011;57425;51.616;6.680;2023-06-14T06:33:26;1.17;;;0.82;;
70067;SDS011;57425;51.616;6.680;2023-06-14T06:35:52;3.75;;;1.08;;
70067;SDS011;57425;51.616;6.680;2023-06-14T06:38:17;3.83;;;1.10;;
70067;SDS011;57425;51.616;6.680;2023-06-14T06:40:44;1.52;;;0.95;;
70067;SDS011;57425;51.616;6.680;2023-06-14T06:43:10;1.00;;;0.88;;
70067;SDS011;57425;51.616;6.680;2023-06-14T06:45:38;2.67;;;1.08;;
70067;SDS011;57425;51.616;6.680;2023-06-14T06:48:05;4.15;;;1.38;;
70067;SDS011;57425;51.616;6.680;2023-06-14T06:50:30;2.25;;;0.88;;
70067;SDS011;57425;51.616;6.680;2023-06-14T06:52:56;3.28;;;0.88;;
70067;SDS011;57425;51.616;6.680;2023-06-14T06:55:22;3.28;;;1.00;;
70067;SDS011;57425;51.616;6.680;2023-06-14T06:57:48;3.50;;;0.90;;
70067;SDS011;57425;51.616;6.680;2023-06-14T07:00:15;1.17;;;0.88;;
70067;SDS011;57425;51.616;6.680;2023-06-14T07:02:41;1.42;;;0.88;;
70067;SDS011;57425;51.616;6.680;2023-06-14T07:05:06;2.67;;;0.98;;
70067;SDS011;57425;51.616;6.680;2023-06-14T07:07:32;1.73;;;0.98;;
70067;SDS011;57425;51.616;6.680;2023-06-14T07:09:58;0.82;;;0.55;;
70067;SDS011;57425;51.616;6.680;2023-06-14T07:12:25;2.55;;;0.95;;
70067;SDS011;57425;51.616;6.680;2023-06-14T07:14:51;3.13;;;1.08;;
70067;SDS011;57425;51.616;6.680;2023-06-14T07:17:16;0.98;;;0.77;;
70067;SDS011;57425;51.616;6.680;2023-06-14T07:19:42;1.27;;;0.95;;
70067;SDS011;57425;51.616;6.680;2023-06-14T07:22:08;1.08;;;0.57;;
70067;SDS011;57425;51.616;6.680;2023-06-14T07:24:33;1.38;;;1.05;;
70067;SDS011;57425;51.616;6.680;2023-06-14T07:27:01;1.25;;;0.77;;
70067;SDS011;57425;51.616;6.680;2023-06-14T07:29:28;0.65;;;0.60;;
70067;SDS011;57425;51.616;6.680;2023-06-14T07:31:53;2.00;;;0.95;;
70067;SDS011;57425;51.616;6.680;2023-06-14T07:34:19;3.88;;;1.02;;
70067;SDS011;57425;51.616;6.680;2023-06-14T07:36:45;1.23;;;0.88;;
70067;SDS011;57425;51.616;6.680;2023-06-14T07:39:11;0.85;;;0.57;;
70067;SDS011;57425;51.616;6.680;2023-06-14T07:41:37;0.65;;;0.65;;
70067;SDS011;57425;51.616;6.680;2023-06-14T07:44:02;1.10;;;0.85;;
70067;SDS011;57425;51.616;6.680;2023-06-14T07:46:28;0.73;;;0.60;;
70067;SDS011;57425;51.616;6.680;2023-06-14T07:48:54;1.40;;;0.80;;
70067;SDS011;57425;51.616;6.680;2023-06-14T07:51:19;10.25;;;1.25;;
70067;SDS011;57425;51.616;6.680;2023-06-14T07:53:46;1.73;;;1.10;;
70067;SDS011;57425;51.616;6.680;2023-06-14T07:56:12;1.55;;;1.00;;
70067;SDS011;57425;51.616;6.680;2023-06-14T07:58:38;0.80;;;0.80;;
70067;SDS011;57425;51.616;6.680;2023-06-14T08:01:04;1.15;;;0.65;;
70067;SDS011;57425;51.616;6.680;2023-06-14T08:03:31;1.70;;;0.75;;
70067;SDS011;57425;51.616;6.680;2023-06-14T08:05:57;2.67;;;1.08;;
70067;SDS011;57425;51.616;6.680;2023-06-14T08:08:23;1.15;;;0.88;;
70067;SDS011;57425;51.616;6.680;2023-06-14T08:10:48;2.05;;;1.05;;
70067;SDS011;57425;51.616;6.680;2023-06-14T08:13:14;1.48;;;0.75;;
70067;SDS011;57425;51.616;6.680;2023-06-14T08:15:40;1.45;;;0.98;;
70067;SDS011;57425;51.616;6.680;2023-06-14T08:18:05;1.15;;;0.95;;
70067;SDS011;57425;51.616;6.680;2023-06-14T08:20:31;0.50;;;0.50;;
70067;SDS011;57425;51.616;6.680;2023-06-14T08:22:57;3.15;;;0.60;;
70067;SDS011;57425;51.616;6.680;2023-06-14T08:25:23;1.00;;;0.77;;
70067;SDS011;57425;51.616;6.680;2023-06-14T08:27:49;0.88;;;0.57;;
70067;SDS011;57425;51.616;6.680;2023-06-14T08:30:15;4.30;;;1.05;;
70067;SDS011;57425;51.616;6.680;2023-06-14T08:32:42;0.77;;;0.60;;
70067;SDS011;57425;51.616;6.680;2023-06-14T08:35:08;3.72;;;0.70;;
70067;SDS011;57425;51.616;6.680;2023-06-14T08:37:37;1.65;;;0.95;;
70067;SDS011;57425;51.616;6.680;2023-06-14T08:40:06;2.60;;;0.93;;
70067;SDS011;57425;51.616;6.680;2023-06-14T08:42:50;3.58;;;1.33;;
70067;SDS011;57425;51.616;6.680;2023-06-14T08:45:17;1.42;;;0.65;;
70067;SDS011;57425;51.616;6.680;2023-06-14T08:47:44;0.90;;;0.63;;
70067;SDS011;57425;51.616;6.680;2023-06-14T08:50:10;1.40;;;1.10;;
70067;SDS011;57425;51.616;6.680;2023-06-14T08:52:37;3.40;;;0.95;;
70067;SDS011;57425;51.616;6.680;2023-06-14T08:55:10;1.60;;;0.98;;
70067;SDS011;57425;51.616;6.680;2023-06-14T08:57:37;2.45;;;0.95;;
70067;SDS011;57425;51.616;6.680;2023-06-14T09:00:04;2.25;;;1.10;;
70067;SDS011;57425;51.616;6.680;2023-06-14T09:02:37;1.15;;;0.70;;
70067;SDS011;57425;51.616;6.680;2023-06-14T09:05:03;5.82;;;1.45;;
70067;SDS011;57425;51.616;6.680;2023-06-14T09:07:29;0.88;;;0.60;;
70067;SDS011;57425;51.616;6.680;2023-06-14T09:10:14;3.70;;;0.57;;
70067;SDS011;57425;51.616;6.680;2023-06-14T09:12:40;0.95;;;0.75;;
70067;SDS011;57425;51.616;6.680;2023-06-14T09:15:06;1.23;;;0.60;;
70067;SDS011;57425;51.616;6.680;2023-06-14T09:17:36;0.82;;;0.60;;
70067;SDS011;57425;51.616;6.680;2023-06-14T09:20:05;1.40;;;0.93;;
70067;SDS011;57425;51.616;6.680;2023-06-14T09:22:38;1.40;;;0.93;;
70067;SDS011;57425;51.616;6.680;2023-06-14T09:25:04;0.95;;;0.65;;
70067;SDS011;57425;51.616;6.680;2023-06-14T09:27:31;1.40;;;0.90;;
70067;SDS011;57425;51.616;6.680;2023-06-14T09:29:57;2.78;;;0.77;;
70067;SDS011;57425;51.616;6.680;2023-06-14T09:32:22;6.63;;;1.00;;
70067;SDS011;57425;51.616;6.680;2023-06-14T09:34:48;3.08;;;1.08;;
70067;SDS011;57425;51.616;6.680;2023-06-14T09:37:27;1.70;;;1.00;;
70067;SDS011;57425;51.616;6.680;2023-06-14T09:39:54;1.50;;;0.73;;
70067;SDS011;57425;51.616;6.680;2023-06-14T09:42:20;0.88;;;0.65;;
70067;SDS011;57425;51.616;6.680;2023-06-14T09:44:49;1.20;;;0.77;;
70067;SDS011;57425;51.616;6.680;2023-06-14T09:47:15;0.55;;;0.55;;
70067;SDS011;57425;51.616;6.680;2023-06-14T09:49:41;0.85;;;0.65;;
70067;SDS011;57425;51.616;6.680;2023-06-14T09:52:09;0.90;;;0.52;;
70067;SDS011;57425;51.616;6.680;2023-06-14T09:54:39;1.35;;;1.25;;
70067;SDS011;57425;51.616;6.680;2023-06-14T09:57:16;0.77;;;0.45;;
70067;SDS011;57425;51.616;6.680;2023-06-14T09:59:46;0.57;;;0.30;;
70067;SDS011;57425;51.616;6.680;2023-06-14T10:04:50;1.88;;;0.73;;
70067;SDS011;57425;51.616;6.680;2023-06-14T10:07:23;0.60;;;0.45;;
70067;SDS011;57425;51.616;6.680;2023-06-14T10:09:51;5.80;;;0.65;;
70067;SDS011;57425;51.616;6.680;2023-06-14T10:12:17;2.58;;;0.50;;
70067;SDS011;57425;51.616;6.680;2023-06-14T10:14:50;1.00;;;0.50;;
70067;SDS011;57425;51.616;6.680;2023-06-14T10:17:27;1.33;;;0.65;;
70067;SDS011;57425;51.616;6.680;2023-06-14T10:20:14;0.52;;;0.52;;
70067;SDS011;57425;51.616;6.680;2023-06-14T10:23:13;0.40;;;0.40;;
70067;SDS011;57425;51.616;6.680;2023-06-14T10:25:43;0.77;;;0.50;;
70067;SDS011;57425;51.616;6.680;2023-06-14T10:28:16;0.38;;;0.32;;
70067;SDS011;57425;51.616;6.680;2023-06-14T10:33:29;1.65;;;0.52;;
70067;SDS011;57425;51.616;6.680;2023-06-14T10:39:00;1.08;;;0.40;;
70067;SDS011;57425;51.616;6.680;2023-06-14T10:41:36;0.77;;;0.55;;
70067;SDS011;57425;51.616;6.680;2023-06-14T10:46:38;10.02;;;0.60;;
70067;SDS011;57425;51.616;6.680;2023-06-14T10:49:04;0.40;;;0.40;;
70067;SDS011;57425;51.616;6.680;2023-06-14T10:51:37;0.90;;;0.70;;
70067;SDS011;57425;51.616;6.680;2023-06-14T10:54:20;0.50;;;0.50;;
70067;SDS011;57425;51.616;6.680;2023-06-14T10:59:13;0.63;;;0.43;;
70067;SDS011;57425;51.616;6.680;2023-06-14T11:01:58;0.47;;;0.40;;
70067;SDS011;57425;51.616;6.680;2023-06-14T11:12:59;0.60;;;0.60;;
70067;SDS011;57425;51.616;6.680;2023-06-14T11:15:28;0.80;;;0.45;;
70067;SDS011;57425;51.616;6.680;2023-06-14T11:17:54;0.80;;;0.60;;
70067;SDS011;57425;51.616;6.680;2023-06-14T11:20:24;0.40;;;0.38;;
70067;SDS011;57425;51.616;6.680;2023-06-14T11:22:51;0.20;;;0.20;;
70067;SDS011;57425;51.616;6.680;2023-06-14T11:25:17;0.85;;;0.40;;
70067;SDS011;57425;51.616;6.680;2023-06-14T11:27:42;0.98;;;0.60;;
70067;SDS011;57425;51.616;6.680;2023-06-14T11:30:09;0.35;;;0.35;;
70067;SDS011;57425;51.616;6.680;2023-06-14T11:32:36;1.40;;;0.40;;
70067;SDS011;57425;51.616;6.680;2023-06-14T11:35:03;0.40;;;0.40;;
70067;SDS011;57425;51.616;6.680;2023-06-14T11:37:30;0.57;;;0.50;;
70067;SDS011;57425;51.616;6.680;2023-06-14T11:39:59;0.52;;;0.43;;
70067;SDS011;57425;51.616;6.680;2023-06-14T11:42:26;1.92;;;1.38;;
70067;SDS011;57425;51.616;6.680;2023-06-14T11:44:53;0.65;;;0.52;;
70067;SDS011;57425;51.616;6.680;2023-06-14T11:47:19;0.57;;;0.40;;
70067;SDS011;57425;51.616;6.680;2023-06-14T11:49:45;0.88;;;0.60;;
70067;SDS011;57425;51.616;6.680;2023-06-14T11:52:12;0.45;;;0.40;;
70067;SDS011;57425;51.616;6.680;2023-06-14T11:54:38;5.28;;;0.47;;
70067;SDS011;57425;51.616;6.680;2023-06-14T11:57:05;0.80;;;0.70;;
70067;SDS011;57425;51.616;6.680;2023-06-14T11:59:32;0.40;;;0.40;;
70067;SDS011;57425;51.616;6.680;2023-06-14T12:02:04;1.17;;;0.50;;
70067;SDS011;57425;51.616;6.680;2023-06-14T12:04:31;1.33;;;0.70;;
70067;SDS011;57425;51.616;6.680;2023-06-14T12:06:57;3.47;;;0.50;;
70067;SDS011;57425;51.616;6.680;2023-06-14T12:09:40;0.70;;;0.60;;
70067;SDS011;57425;51.616;6.680;2023-06-14T12:12:09;1.33;;;0.90;;
70067;SDS011;57425;51.616;6.680;2023-06-14T12:14:35;1.58;;;0.65;;
70067;SDS011;57425;51.616;6.680;2023-06-14T12:17:05;1.75;;;0.70;;
70067;SDS011;57425;51.616;6.680;2023-06-14T12:19:41;1.17;;;0.60;;
70067;SDS011;57425;51.616;6.680;2023-06-14T12:22:12;0.73;;;0.52;;
70067;SDS011;57425;51.616;6.680;2023-06-14T12:24:38;0.65;;;0.65;;
70067;SDS011;57425;51.616;6.680;2023-06-14T12:27:04;1.92;;;0.60;;
70067;SDS011;57425;51.616;6.680;2023-06-14T12:29:31;1.25;;;0.55;;
70067;SDS011;57425;51.616;6.680;2023-06-14T12:31:57;0.70;;;0.60;;
70067;SDS011;57425;51.616;6.680;2023-06-14T12:34:23;0.68;;;0.60;;
70067;SDS011;57425;51.616;6.680;2023-06-14T12:36:50;0.73;;;0.50;;
70067;SDS011;57425;51.616;6.680;2023-06-14T12:39:16;0.43;;;0.40;;
70067;SDS011;57425;51.616;6.680;2023-06-14T12:41:42;2.33;;;0.70;;
70067;SDS011;57425;51.616;6.680;2023-06-14T12:44:08;0.93;;;0.60;;
70067;SDS011;57425;51.616;6.680;2023-06-14T12:46:34;1.60;;;0.90;;
70067;SDS011;57425;51.616;6.680;2023-06-14T12:49:01;0.85;;;0.60;;
70067;SDS011;57425;51.616;6.680;2023-06-14T12:51:27;0.73;;;0.73;;
70067;SDS011;57425;51.616;6.680;2023-06-14T12:53:53;1.35;;;0.70;;
70067;SDS011;57425;51.616;6.680;2023-06-14T12:56:18;0.68;;;0.65;;
70067;SDS011;57425;51.616;6.680;2023-06-14T12:58:44;0.82;;;0.65;;
70067;SDS011;57425;51.616;6.680;2023-06-14T13:01:10;1.25;;;0.70;;
70067;SDS011;57425;51.616;6.680;2023-06-14T13:03:36;0.65;;;0.65;;
70067;SDS011;57425;51.616;6.680;2023-06-14T13:06:01;0.98;;;0.70;;
70067;SDS011;57425;51.616;6.680;2023-06-14T13:08:29;0.43;;;0.40;;
70067;SDS011;57425;51.616;6.680;2023-06-14T13:10:55;0.40;;;0.40;;
70067;SDS011;57425;51.616;6.680;2023-06-14T13:13:20;0.80;;;0.68;;
70067;SDS011;57425;51.616;6.680;2023-06-14T13:15:46;0.73;;;0.60;;
70067;SDS011;57425;51.616;6.680;2023-06-14T13:18:13;0.65;;;0.50;;
70067;SDS011;57425;51.616;6.680;2023-06-14T13:20:39;1.90;;;0.60;;
70067;SDS011;57425;51.616;6.680;2023-06-14T13:23:05;1.50;;;0.60;;
70067;SDS011;57425;51.616;6.680;2023-06-14T13:25:32;1.38;;;0.82;;
70067;SDS011;57425;51.616;6.680;2023-06-14T13:27:59;1.35;;;0.80;;
70067;SDS011;57425;51.616;6.680;2023-06-14T13:30:24;3.72;;;0.63;;
70067;SDS011;57425;51.616;6.680;2023-06-14T13:32:50;0.50;;;0.50;;
70067;SDS011;57425;51.616;6.680;2023-06-14T13:35:17;1.30;;;0.70;;
70067;SDS011;57425;51.616;6.680;2023-06-14T13:37:44;1.42;;;0.95;;
70067;SDS011;57425;51.616;6.680;2023-06-14T13:40:10;1.80;;;0.70;;
70067;SDS011;57425;51.616;6.680;2023-06-14T13:42:36;0.55;;;0.43;;
70067;SDS011;57425;51.616;6.680;2023-06-14T13:45:05;2.90;;;0.77;;
70067;SDS011;57425;51.616;6.680;2023-06-14T13:47:31;0.80;;;0.43;;
70067;SDS011;57425;51.616;6.680;2023-06-14T13:49:57;1.13;;;0.70;;
70067;SDS011;57425;51.616;6.680;2023-06-14T13:52:23;2.33;;;0.60;;
70067;SDS011;57425;51.616;6.680;2023-06-14T13:54:49;0.93;;;0.65;;
70067;SDS011;57425;51.616;6.680;2023-06-14T13:57:15;0.70;;;0.70;;
70067;SDS011;57425;51.616;6.680;2023-06-14T13:59:41;1.13;;;0.70;;
70067;SDS011;57425;51.616;6.680;2023-06-14T14:02:08;0.98;;;0.77;;
70067;SDS011;57425;51.616;6.680;2023-06-14T14:04:34;0.80;;;0.80;;
70067;SDS011;57425;51.616;6.680;2023-06-14T14:07:03;0.70;;;0.60;;
70067;SDS011;57425;51.616;6.680;2023-06-14T14:09:31;1.02;;;0.90;;
70067;SDS011;57425;51.616;6.680;2023-06-14T14:12:00;1.13;;;0.82;;
70067;SDS011;57425;51.616;6.680;2023-06-14T14:14:30;0.85;;;0.70;;
70067;SDS011;57425;51.616;6.680;2023-06-14T14:16:57;6.80;;;1.33;;
70067;SDS011;57425;51.616;6.680;2023-06-14T14:19:23;4.45;;;1.40;;
70067;SDS011;57425;51.616;6.680;2023-06-14T14:21:49;0.70;;;0.70;;
70067;SDS011;57425;51.616;6.680;2023-06-14T14:24:15;0.77;;;0.70;;
70067;SDS011;57425;51.616;6.680;2023-06-14T14:26:41;1.00;;;0.85;;
70067;SDS011;57425;51.616;6.680;2023-06-14T14:29:07;1.20;;;0.93;;
70067;SDS011;57425;51.616;6.680;2023-06-14T14:31:36;3.53;;;1.40;;
70067;SDS011;57425;51.616;6.680;2023-06-14T14:34:02;0.90;;;0.65;;
70067;SDS011;57425;51.616;6.680;2023-06-14T14:36:27;2.00;;;1.02;;
70067;SDS011;57425;51.616;6.680;2023-06-14T14:38:53;1.15;;;0.68;;
70067;SDS011;57425;51.616;6.680;2023-06-14T14:41:18;3.08;;;1.05;;
70067;SDS011;57425;51.616;6.680;2023-06-14T14:43:44;0.90;;;0.70;;
70067;SDS011;57425;51.616;6.680;2023-06-14T14:46:10;0.93;;;0.80;;
70067;SDS011;57425;51.616;6.680;2023-06-14T14:48:35;1.48;;;0.85;;
70067;SDS011;57425;51.616;6.680;2023-06-14T14:51:01;4.50;;;1.08;;
70067;SDS011;57425;51.616;6.680;2023-06-14T14:53:27;1.00;;;0.77;;
70067;SDS011;57425;51.616;6.680;2023-06-14T14:55:52;1.65;;;1.20;;
70067;SDS011;57425;51.616;6.680;2023-06-14T14:58:18;0.68;;;0.63;;
70067;SDS011;57425;51.616;6.680;2023-06-14T15:00:44;1.05;;;0.90;;
70067;SDS011;57425;51.616;6.680;2023-06-14T15:03:10;3.70;;;0.88;;
70067;SDS011;57425;51.616;6.680;2023-06-14T15:05:36;2.00;;;1.23;;
70067;SDS011;57425;51.616;6.680;2023-06-14T15:08:05;1.52;;;0.93;;
70067;SDS011;57425;51.616;6.680;2023-06-14T15:10:37;0.88;;;0.60;;
70067;SDS011;57425;51.616;6.680;2023-06-14T15:13:06;1.77;;;0.88;;
70067;SDS011;57425;51.616;6.680;2023-06-14T15:15:34;1.23;;;0.93;;